sensor_id;sensor_type;location;lat;lon;timestamp;pressure;altitude;pressure_sealevel;temperature;humidity
31873;BME280;22407;42.820;23.374;2024-01-07T00:02:09;94311.59;;;2.17;100.00
31873;BME280;22407;42.820;23.374;2024-01-07T00:04:34;94322.47;;;2.02;100.00
31873;BME280;22407;42.820;23.374;2024-01-07T00:07:00;94319.53;;;2.22;100.00
31873;BME280;22407;42.820;23.374;2024-01-07T00:09:25;94316.03;;;2.03;100.00
31873;BME280;22407;42.820;23.374;2024-01-07T00:11:51;94323.84;;;1.76;100.00
31873;BME280;22407;42.820;23.374;2024-01-07T00:14:17;94314.66;;;1.64;100.00
31873;BME280;22407;42.820;23.374;2024-01-07T00:16:42;94313.06;;;1.86;100.00
31873;BME280;22407;42.820;23.374;2024-01-07T00:19:08;94298.25;;;2.53;100.00
31873;BME280;22407;42.820;23.374;2024-01-07T00:21:33;94305.06;;;2.96;100.00
31873;BME280;22407;42.820;23.374;2024-01-07T00:24:00;94304.19;;;3.01;100.00
31873;BME280;22407;42.820;23.374;2024-01-07T00:26:25;94288.28;;;3.09;100.00
31873;BME280;22407;42.820;23.374;2024-01-07T00:28:51;94285.00;;;3.12;100.00
31873;BME280;22407;42.820;23.374;2024-01-07T00:31:16;94287.88;;;2.52;100.00
31873;BME280;22407;42.820;23.374;2024-01-07T00:33:42;94278.47;;;2.54;100.00
31873;BME280;22407;42.820;23.374;2024-01-07T00:36:07;94281.66;;;2.56;100.00
31873;BME280;22407;42.820;23.374;2024-01-07T00:38:33;94284.09;;;2.71;100.00
31873;BME280;22407;42.820;23.374;2024-01-07T00:40:58;94263.03;;;2.52;100.00
31873;BME280;22407;42.820;23.374;2024-01-07T00:43:24;94256.41;;;2.31;100.00
31873;BME280;22407;42.820;23.374;2024-01-07T00:45:49;94248.69;;;2.29;100.00
31873;BME280;22407;42.820;23.374;2024-01-07T00:48:15;94236.72;;;2.27;100.00
31873;BME280;22407;42.820;23.374;2024-01-07T00:50:42;94222.03;;;2.61;100.00
31873;BME280;22407;42.820;23.374;2024-01-07T00:53:07;94222.06;;;3.20;100.00
31873;BME280;22407;42.820;23.374;2024-01-07T00:55:33;94212.56;;;3.54;100.00
31873;BME280;22407;42.820;23.374;2024-01-07T00:58:01;94218.22;;;3.52;100.00
31873;BME280;22407;42.820;23.374;2024-01-07T01:00:26;94202.84;;;3.71;100.00
31873;BME280;22407;42.820;23.374;2024-01-07T01:02:53;94208.50;;;3.83;100.00
31873;BME280;22407;42.820;23.374;2024-01-07T01:05:18;94199.78;;;3.64;100.00
31873;BME280;22407;42.820;23.374;2024-01-07T01:07:43;94190.38;;;3.67;100.00
31873;BME280;22407;42.820;23.374;2024-01-07T01:10:09;94185.63;;;3.64;100.00
31873;BME280;22407;42.820;23.374;2024-01-07T01:12:35;94186.69;;;3.63;100.00
31873;BME280;22407;42.820;23.374;2024-01-07T01:15:00;94179.47;;;3.23;100.00
31873;BME280;22407;42.820;23.374;2024-01-07T01:17:26;94180.28;;;3.24;100.00
31873;BME280;22407;42.820;23.374;2024-01-07T01:19:51;94175.13;;;3.14;100.00
31873;BME280;22407;42.820;23.374;2024-01-07T01:22:17;94164.03;;;3.07;100.00
31873;BME280;22407;42.820;23.374;2024-01-07T01:24:42;94152.75;;;3.23;100.00
31873;BME280;22407;42.820;23.374;2024-01-07T01:27:11;94148.78;;;3.07;100.00
31873;BME280;22407;42.820;23.374;2024-01-07T01:29:37;94153.94;;;3.17;100.00
31873;BME280;22407;42.820;23.374;2024-01-07T01:32:03;94149.56;;;3.21;100.00
31873;BME280;22407;42.820;23.374;2024-01-07T01:34:28;94142.56;;;3.25;100.00
31873;BME280;22407;42.820;23.374;2024-01-07T01:36:54;94131.56;;;3.13;100.00
31873;BME280;22407;42.820;23.374;2024-01-07T01:39:19;94136.78;;;3.45;100.00
31873;BME280;22407;42.820;23.374;2024-01-07T01:41:45;94131.75;;;3.43;100.00
31873;BME280;22407;42.820;23.374;2024-01-07T01:44:10;94114.50;;;3.49;100.00
31873;BME280;22407;42.820;23.374;2024-01-07T01:46:36;94102.81;;;3.45;100.00
31873;BME280;22407;42.820;23.374;2024-01-07T01:49:01;94097.06;;;3.52;100.00
31873;BME280;22407;42.820;23.374;2024-01-07T01:51:27;94083.63;;;3.17;100.00
31873;BME280;22407;42.820;23.374;2024-01-07T01:53:54;94089.69;;;3.09;100.00
31873;BME280;22407;42.820;23.374;2024-01-07T01:56:20;94089.19;;;3.07;100.00
31873;BME280;22407;42.820;23.374;2024-01-07T01:58:49;94080.66;;;3.05;100.00
31873;BME280;22407;42.820;23.374;2024-01-07T02:01:14;94077.13;;;3.09;100.00
31873;BME280;22407;42.820;23.374;2024-01-07T02:03:40;94076.13;;;3.05;100.00
31873;BME280;22407;42.820;23.374;2024-01-07T02:06:06;94072.03;;;3.21;100.00
31873;BME280;22407;42.820;23.374;2024-01-07T02:08:32;94064.81;;;3.35;100.00
31873;BME280;22407;42.820;23.374;2024-01-07T02:10:58;94085.13;;;3.36;100.00
31873;BME280;22407;42.820;23.374;2024-01-07T02:13:23;94083.34;;;3.18;100.00
31873;BME280;22407;42.820;23.374;2024-01-07T02:15:49;94087.00;;;3.09;100.00
31873;BME280;22407;42.820;23.374;2024-01-07T02:18:14;94081.25;;;3.29;100.00
31873;BME280;22407;42.820;23.374;2024-01-07T02:20:40;94081.44;;;3.32;100.00
31873;BME280;22407;42.820;23.374;2024-01-07T02:23:05;94072.22;;;3.25;100.00
31873;BME280;22407;42.820;23.374;2024-01-07T02:25:37;94053.34;;;3.08;100.00
31873;BME280;22407;42.820;23.374;2024-01-07T02:28:04;94040.19;;;2.98;100.00
31873;BME280;22407;42.820;23.374;2024-01-07T02:30:29;94039.94;;;2.99;100.00
31873;BME280;22407;42.820;23.374;2024-01-07T02:32:55;94030.22;;;2.90;100.00
31873;BME280;22407;42.820;23.374;2024-01-07T02:35:20;94020.72;;;2.97;100.00
31873;BME280;22407;42.820;23.374;2024-01-07T02:37:46;94014.38;;;2.93;100.00
31873;BME280;22407;42.820;23.374;2024-01-07T02:40:12;94005.44;;;3.11;100.00
31873;BME280;22407;42.820;23.374;2024-01-07T02:42:37;93996.69;;;2.84;100.00
31873;BME280;22407;42.820;23.374;2024-01-07T02:45:03;93997.88;;;2.78;100.00
31873;BME280;22407;42.820;23.374;2024-01-07T02:47:29;93987.16;;;2.91;100.00
31873;BME280;22407;42.820;23.374;2024-01-07T02:49:54;93985.91;;;2.75;100.00
31873;BME280;22407;42.820;23.374;2024-01-07T02:52:20;93998.19;;;2.76;100.00
31873;BME280;22407;42.820;23.374;2024-01-07T02:54:45;93987.69;;;2.80;100.00
31873;BME280;22407;42.820;23.374;2024-01-07T02:57:11;93998.94;;;3.04;100.00
31873;BME280;22407;42.820;23.374;2024-01-07T02:59:36;94009.63;;;2.90;100.00
31873;BME280;22407;42.820;23.374;2024-01-07T03:02:02;94003.59;;;2.98;100.00
31873;BME280;22407;42.820;23.374;2024-01-07T03:04:27;94005.44;;;3.11;100.00
31873;BME280;22407;42.820;23.374;2024-01-07T03:06:53;94008.31;;;3.01;100.00
31873;BME280;22407;42.820;23.374;2024-01-07T03:09:18;94006.44;;;3.15;100.00
31873;BME280;22407;42.820;23.374;2024-01-07T03:11:44;94007.78;;;3.26;100.00
31873;BME280;22407;42.820;23.374;2024-01-07T03:14:10;94019.38;;;3.22;100.00
31873;BME280;22407;42.820;23.374;2024-01-07T03:16:35;94014.22;;;3.25;100.00
31873;BME280;22407;42.820;23.374;2024-01-07T03:19:01;94009.56;;;3.31;100.00
31873;BME280;22407;42.820;23.374;2024-01-07T03:21:27;94008.91;;;3.47;100.00
31873;BME280;22407;42.820;23.374;2024-01-07T03:23:53;94001.19;;;3.45;100.00
31873;BME280;22407;42.820;23.374;2024-01-07T03:26:19;94006.44;;;3.50;100.00
31873;BME280;22407;42.820;23.374;2024-01-07T03:28:45;94014.88;;;3.44;100.00
31873;BME280;22407;42.820;23.374;2024-01-07T03:31:15;94018.81;;;3.46;100.00
31873;BME280;22407;42.820;23.374;2024-01-07T03:33:42;94023.50;;;3.63;100.00
31873;BME280;22407;42.820;23.374;2024-01-07T03:36:09;94027.47;;;3.65;100.00
31873;BME280;22407;42.820;23.374;2024-01-07T03:38:35;94030.69;;;3.54;100.00
31873;BME280;22407;42.820;23.374;2024-01-07T03:41:01;94026.31;;;3.58;100.00
31873;BME280;22407;42.820;23.374;2024-01-07T03:43:27;94022.84;;;3.79;100.00
31873;BME280;22407;42.820;23.374;2024-01-07T03:45:53;94030.56;;;3.81;100.00
31873;BME280;22407;42.820;23.374;2024-01-07T03:48:18;94034.72;;;3.87;100.00
31873;BME280;22407;42.820;23.374;2024-01-07T03:50:44;94026.94;;;3.77;100.00
31873;BME280;22407;42.820;23.374;2024-01-07T03:53:10;94036.41;;;4.05;100.00
31873;BME280;22407;42.820;23.374;2024-01-07T03:55:36;94035.31;;;3.84;100.00
31873;BME280;22407;42.820;23.374;2024-01-07T03:58:01;94029.38;;;3.87;100.00
31873;BME280;22407;42.820;23.374;2024-01-07T04:00:28;94033.06;;;3.99;100.00
31873;BME280;22407;42.820;23.374;2024-01-07T04:02:54;94037.75;;;4.16;100.00
31873;BME280;22407;42.820;23.374;2024-01-07T04:05:19;94040.50;;;4.24;100.00
31873;BME280;22407;42.820;23.374;2024-01-07T04:07:44;94027.78;;;4.08;100.00
31873;BME280;22407;42.820;23.374;2024-01-07T04:10:10;94030.91;;;4.31;100.00
31873;BME280;22407;42.820;23.374;2024-01-07T04:12:36;94041.09;;;4.51;100.00
31873;BME280;22407;42.820;23.374;2024-01-07T04:15:03;94035.41;;;4.44;100.00
31873;BME280;22407;42.820;23.374;2024-01-07T04:17:28;94029.06;;;4.40;100.00
31873;BME280;22407;42.820;23.374;2024-01-07T04:19:54;94028.19;;;4.53;100.00
31873;BME280;22407;42.820;23.374;2024-01-07T04:22:20;94033.72;;;4.57;100.00
31873;BME280;22407;42.820;23.374;2024-01-07T04:24:46;94030.47;;;4.68;100.00
31873;BME280;22407;42.820;23.374;2024-01-07T04:27:11;94025.94;;;4.86;100.00
31873;BME280;22407;42.820;23.374;2024-01-07T04:29:37;94025.38;;;5.06;100.00
31873;BME280;22407;42.820;23.374;2024-01-07T04:32:02;94018.97;;;5.15;100.00
31873;BME280;22407;42.820;23.374;2024-01-07T04:34:28;94012.06;;;5.56;100.00
31873;BME280;22407;42.820;23.374;2024-01-07T04:36:53;94004.22;;;5.77;100.00
31873;BME280;22407;42.820;23.374;2024-01-07T04:39:19;93996.78;;;5.82;100.00
31873;BME280;22407;42.820;23.374;2024-01-07T04:41:45;93990.00;;;5.85;100.00
31873;BME280;22407;42.820;23.374;2024-01-07T04:44:10;93985.91;;;5.79;100.00
31873;BME280;22407;42.820;23.374;2024-01-07T04:46:38;93974.81;;;5.97;100.00
31873;BME280;22407;42.820;23.374;2024-01-07T04:49:04;93968.50;;;6.01;100.00
31873;BME280;22407;42.820;23.374;2024-01-07T04:51:31;93958.69;;;5.97;100.00
31873;BME280;22407;42.820;23.374;2024-01-07T04:53:56;93943.84;;;6.08;100.00
31873;BME280;22407;42.820;23.374;2024-01-07T04:56:22;93939.25;;;6.08;100.00
31873;BME280;22407;42.820;23.374;2024-01-07T04:58:48;93934.66;;;6.17;100.00
31873;BME280;22407;42.820;23.374;2024-01-07T05:01:14;93936.81;;;6.32;100.00
31873;BME280;22407;42.820;23.374;2024-01-07T05:03:39;93945.19;;;6.31;100.00
31873;BME280;22407;42.820;23.374;2024-01-07T05:06:07;93952.00;;;6.28;100.00
31873;BME280;22407;42.820;23.374;2024-01-07T05:08:33;93952.66;;;6.17;100.00
31873;BME280;22407;42.820;23.374;2024-01-07T05:10:59;93948.09;;;6.00;100.00
31873;BME280;22407;42.820;23.374;2024-01-07T05:13:24;93930.88;;;6.01;100.00
31873;BME280;22407;42.820;23.374;2024-01-07T05:15:50;93927.03;;;6.19;100.00
31873;BME280;22407;42.820;23.374;2024-01-07T05:18:25;93916.72;;;6.38;100.00
31873;BME280;22407;42.820;23.374;2024-01-07T05:20:51;93907.38;;;6.44;100.00
31873;BME280;22407;42.820;23.374;2024-01-07T05:23:17;93907.63;;;6.51;100.00
31873;BME280;22407;42.820;23.374;2024-01-07T05:25:43;93919.84;;;6.40;100.00
31873;BME280;22407;42.820;23.374;2024-01-07T05:28:10;93907.38;;;6.44;100.00
31873;BME280;22407;42.820;23.374;2024-01-07T05:30:36;93927.13;;;6.48;100.00
31873;BME280;22407;42.820;23.374;2024-01-07T05:33:02;93919.81;;;6.57;100.00
31873;BME280;22407;42.820;23.374;2024-01-07T05:35:28;93900.13;;;6.36;100.00
31873;BME280;22407;42.820;23.374;2024-01-07T05:37:53;93907.84;;;6.46;100.00
31873;BME280;22407;42.820;23.374;2024-01-07T05:40:19;93915.59;;;6.39;100.00
31873;BME280;22407;42.820;23.374;2024-01-07T05:42:45;93910.97;;;6.11;100.00
31873;BME280;22407;42.820;23.374;2024-01-07T05:45:10;93918.25;;;6.02;100.00
31873;BME280;22407;42.820;23.374;2024-01-07T05:47:36;93924.75;;;5.84;100.00
31873;BME280;22407;42.820;23.374;2024-01-07T05:50:02;93940.41;;;5.82;100.00
31873;BME280;22407;42.820;23.374;2024-01-07T05:52:28;93950.34;;;5.65;100.00
31873;BME280;22407;42.820;23.374;2024-01-07T05:54:53;93946.09;;;5.72;100.00
31873;BME280;22407;42.820;23.374;2024-01-07T05:57:19;93944.31;;;5.76;100.00
31873;BME280;22407;42.820;23.374;2024-01-07T05:59:45;93960.75;;;5.75;100.00
31873;BME280;22407;42.820;23.374;2024-01-07T06:02:11;93956.81;;;5.97;100.00
31873;BME280;22407;42.820;23.374;2024-01-07T06:04:38;93960.91;;;6.03;100.00
31873;BME280;22407;42.820;23.374;2024-01-07T06:07:04;93955.09;;;5.85;100.00
31873;BME280;22407;42.820;23.374;2024-01-07T06:09:30;93949.06;;;5.96;100.00
31873;BME280;22407;42.820;23.374;2024-01-07T06:11:55;93946.22;;;6.01;100.00
31873;BME280;22407;42.820;23.374;2024-01-07T06:14:22;93940.38;;;6.07;100.00
31873;BME280;22407;42.820;23.374;2024-01-07T06:16:48;93938.25;;;6.21;100.00
31873;BME280;22407;42.820;23.374;2024-01-07T06:19:13;93936.53;;;6.25;100.00
31873;BME280;22407;42.820;23.374;2024-01-07T06:21:40;93931.63;;;6.19;100.00
31873;BME280;22407;42.820;23.374;2024-01-07T06:24:07;93938.31;;;6.13;100.00
31873;BME280;22407;42.820;23.374;2024-01-07T06:26:33;93940.31;;;6.24;100.00
31873;BME280;22407;42.820;23.374;2024-01-07T06:28:59;93942.81;;;6.29;100.00
31873;BME280;22407;42.820;23.374;2024-01-07T06:31:25;93928.75;;;6.24;100.00
31873;BME280;22407;42.820;23.374;2024-01-07T06:33:51;93945.06;;;6.27;100.00
31873;BME280;22407;42.820;23.374;2024-01-07T06:36:16;93943.81;;;6.16;100.00
31873;BME280;22407;42.820;23.374;2024-01-07T06:38:42;93944.78;;;6.03;100.00
31873;BME280;22407;42.820;23.374;2024-01-07T06:41:09;93937.38;;;6.00;100.00
31873;BME280;22407;42.820;23.374;2024-01-07T06:43:34;93935.00;;;6.07;100.00
31873;BME280;22407;42.820;23.374;2024-01-07T06:46:00;93933.09;;;5.99;100.00
31873;BME280;22407;42.820;23.374;2024-01-07T06:48:26;93946.38;;;6.04;100.00
31873;BME280;22407;42.820;23.374;2024-01-07T06:50:51;93958.22;;;6.03;100.00
31873;BME280;22407;42.820;23.374;2024-01-07T06:53:17;93956.78;;;6.06;100.00
31873;BME280;22407;42.820;23.374;2024-01-07T06:55:42;93950.66;;;5.97;100.00
31873;BME280;22407;42.820;23.374;2024-01-07T06:58:11;93957.56;;;6.15;100.00
31873;BME280;22407;42.820;23.374;2024-01-07T07:00:39;93951.72;;;6.13;100.00
31873;BME280;22407;42.820;23.374;2024-01-07T07:03:05;93951.75;;;6.04;100.00
31873;BME280;22407;42.820;23.374;2024-01-07T07:05:31;93951.78;;;5.88;100.00
31873;BME280;22407;42.820;23.374;2024-01-07T07:07:57;93962.19;;;5.81;100.00
31873;BME280;22407;42.820;23.374;2024-01-07T07:10:22;93965.97;;;5.88;100.00
31873;BME280;22407;42.820;23.374;2024-01-07T07:12:48;93971.81;;;5.90;100.00
31873;BME280;22407;42.820;23.374;2024-01-07T07:15:16;93969.28;;;6.02;100.00
31873;BME280;22407;42.820;23.374;2024-01-07T07:17:41;93971.94;;;6.10;100.00
31873;BME280;22407;42.820;23.374;2024-01-07T07:20:08;93975.06;;;6.29;100.00
31873;BME280;22407;42.820;23.374;2024-01-07T07:22:33;93971.59;;;6.20;100.00
31873;BME280;22407;42.820;23.374;2024-01-07T07:24:59;93965.13;;;6.21;100.00
31873;BME280;22407;42.820;23.374;2024-01-07T07:27:25;93958.50;;;6.27;100.00
31873;BME280;22407;42.820;23.374;2024-01-07T07:29:50;93966.28;;;5.95;100.00
31873;BME280;22407;42.820;23.374;2024-01-07T07:32:16;93965.50;;;5.86;100.00
31873;BME280;22407;42.820;23.374;2024-01-07T07:34:41;93959.34;;;5.77;100.00
31873;BME280;22407;42.820;23.374;2024-01-07T07:37:07;93960.44;;;5.76;100.00
31873;BME280;22407;42.820;23.374;2024-01-07T07:39:32;93961.06;;;6.07;100.00
31873;BME280;22407;42.820;23.374;2024-01-07T07:41:58;93962.00;;;6.11;100.00
31873;BME280;22407;42.820;23.374;2024-01-07T07:44:24;93962.63;;;5.99;100.00
31873;BME280;22407;42.820;23.374;2024-01-07T07:46:49;93963.13;;;6.01;100.00
31873;BME280;22407;42.820;23.374;2024-01-07T07:49:15;93964.69;;;6.02;100.00
31873;BME280;22407;42.820;23.374;2024-01-07T07:51:43;93962.34;;;5.93;100.00
31873;BME280;22407;42.820;23.374;2024-01-07T07:54:09;93957.59;;;5.90;100.00
31873;BME280;22407;42.820;23.374;2024-01-07T07:56:34;93947.81;;;5.85;100.00
31873;BME280;22407;42.820;23.374;2024-01-07T07:59:01;93952.56;;;5.88;100.00
31873;BME280;22407;42.820;23.374;2024-01-07T08:01:27;93954.59;;;5.99;100.00
31873;BME280;22407;42.820;23.374;2024-01-07T08:03:53;93954.59;;;5.99;100.00
31873;BME280;22407;42.820;23.374;2024-01-07T08:06:19;93947.19;;;5.88;100.00
31873;BME280;22407;42.820;23.374;2024-01-07T08:08:44;93947.91;;;6.22;100.00
31873;BME280;22407;42.820;23.374;2024-01-07T08:11:10;93950.13;;;6.20;100.00
31873;BME280;22407;42.820;23.374;2024-01-07T08:13:37;93945.16;;;6.39;100.00
31873;BME280;22407;42.820;23.374;2024-01-07T08:16:04;93944.84;;;6.41;100.00
31873;BME280;22407;42.820;23.374;2024-01-07T08:18:31;93945.66;;;6.70;100.00
31873;BME280;22407;42.820;23.374;2024-01-07T08:20:56;93951.09;;;6.62;100.00
31873;BME280;22407;42.820;23.374;2024-01-07T08:23:24;93948.44;;;6.53;100.00
31873;BME280;22407;42.820;23.374;2024-01-07T08:25:49;93947.97;;;6.80;100.00
31873;BME280;22407;42.820;23.374;2024-01-07T08:28:16;93947.72;;;6.73;100.00
31873;BME280;22407;42.820;23.374;2024-01-07T08:30:42;93950.25;;;6.98;100.00
31873;BME280;22407;42.820;23.374;2024-01-07T08:33:07;93938.06;;;7.01;100.00
31873;BME280;22407;42.820;23.374;2024-01-07T08:35:33;93944.72;;;7.03;100.00
31873;BME280;22407;42.820;23.374;2024-01-07T08:37:58;93953.94;;;6.94;100.00
31873;BME280;22407;42.820;23.374;2024-01-07T08:40:24;93942.56;;;6.88;100.00
31873;BME280;22407;42.820;23.374;2024-01-07T08:42:49;93946.19;;;6.92;100.00
31873;BME280;22407;42.820;23.374;2024-01-07T08:45:15;93938.25;;;7.25;100.00
31873;BME280;22407;42.820;23.374;2024-01-07T08:47:41;93932.97;;;7.49;100.00
31873;BME280;22407;42.820;23.374;2024-01-07T08:50:07;93926.63;;;7.53;100.00
31873;BME280;22407;42.820;23.374;2024-01-07T08:52:33;93926.28;;;7.55;99.09
31873;BME280;22407;42.820;23.374;2024-01-07T08:55:01;93924.19;;;7.60;98.68
31873;BME280;22407;42.820;23.374;2024-01-07T08:57:27;93917.41;;;7.74;98.10
31873;BME280;22407;42.820;23.374;2024-01-07T08:59:53;93920.16;;;7.66;98.06
31873;BME280;22407;42.820;23.374;2024-01-07T09:02:18;93926.06;;;7.80;97.98
31873;BME280;22407;42.820;23.374;2024-01-07T09:04:44;93921.47;;;7.80;97.52
31873;BME280;22407;42.820;23.374;2024-01-07T09:07:10;93922.84;;;7.86;96.42
31873;BME280;22407;42.820;23.374;2024-01-07T09:09:35;93928.72;;;8.00;97.35
31873;BME280;22407;42.820;23.374;2024-01-07T09:12:01;93917.75;;;8.05;95.49
31873;BME280;22407;42.820;23.374;2024-01-07T09:14:30;93926.91;;;8.25;93.40
31873;BME280;22407;42.820;23.374;2024-01-07T09:16:55;93931.59;;;8.48;92.84
31873;BME280;22407;42.820;23.374;2024-01-07T09:19:21;93930.34;;;8.46;88.75
31873;BME280;22407;42.820;23.374;2024-01-07T09:21:46;93928.00;;;8.56;88.60
31873;BME280;22407;42.820;23.374;2024-01-07T09:24:12;93922.41;;;8.73;88.55
31873;BME280;22407;42.820;23.374;2024-01-07T09:26:37;93928.03;;;8.68;89.21
31873;BME280;22407;42.820;23.374;2024-01-07T09:29:03;93926.09;;;8.68;90.07
31873;BME280;22407;42.820;23.374;2024-01-07T09:31:28;93934.63;;;8.58;90.92
31873;BME280;22407;42.820;23.374;2024-01-07T09:33:54;93934.28;;;8.48;93.11
31873;BME280;22407;42.820;23.374;2024-01-07T09:36:20;93935.63;;;8.54;92.69
31873;BME280;22407;42.820;23.374;2024-01-07T09:38:45;93935.41;;;8.59;94.14
31873;BME280;22407;42.820;23.374;2024-01-07T09:41:11;93937.00;;;8.48;94.67
31873;BME280;22407;42.820;23.374;2024-01-07T09:43:36;93926.38;;;8.31;95.35
31873;BME280;22407;42.820;23.374;2024-01-07T09:46:02;93931.34;;;8.41;94.82
31873;BME280;22407;42.820;23.374;2024-01-07T09:48:28;93931.56;;;8.36;95.47
31873;BME280;22407;42.820;23.374;2024-01-07T09:50:55;93922.81;;;8.51;95.84
31873;BME280;22407;42.820;23.374;2024-01-07T09:53:25;93909.81;;;8.77;95.12
31873;BME280;22407;42.820;23.374;2024-01-07T09:56:15;93919.13;;;8.79;94.66
31873;BME280;22407;42.820;23.374;2024-01-07T09:58:45;93917.22;;;8.80;94.76
31873;BME280;22407;42.820;23.374;2024-01-07T10:01:15;93917.00;;;8.85;94.44
31873;BME280;22407;42.820;23.374;2024-01-07T10:03:42;93918.34;;;8.91;92.43
31873;BME280;22407;42.820;23.374;2024-01-07T10:06:08;93916.97;;;9.09;89.77
31873;BME280;22407;42.820;23.374;2024-01-07T10:08:34;93916.28;;;9.36;89.98
31873;BME280;22407;42.820;23.374;2024-01-07T10:10:59;93911.81;;;9.67;89.26
31873;BME280;22407;42.820;23.374;2024-01-07T10:13:26;93916.53;;;9.70;87.16
31873;BME280;22407;42.820;23.374;2024-01-07T10:15:52;93910.97;;;9.78;79.79
31873;BME280;22407;42.820;23.374;2024-01-07T10:18:18;93912.28;;;9.96;85.98
31873;BME280;22407;42.820;23.374;2024-01-07T10:20:44;93909.56;;;9.96;86.66
31873;BME280;22407;42.820;23.374;2024-01-07T10:23:09;93903.63;;;10.03;84.92
31873;BME280;22407;42.820;23.374;2024-01-07T10:25:35;93896.22;;;10.15;84.24
31873;BME280;22407;42.820;23.374;2024-01-07T10:28:03;93899.03;;;10.34;82.33
31873;BME280;22407;42.820;23.374;2024-01-07T10:30:31;93884.84;;;10.37;80.46
31873;BME280;22407;42.820;23.374;2024-01-07T10:32:58;93896.97;;;10.74;80.16
31873;BME280;22407;42.820;23.374;2024-01-07T10:35:30;93882.38;;;11.09;78.22
31873;BME280;22407;42.820;23.374;2024-01-07T10:37:59;93885.19;;;11.31;75.71
31873;BME280;22407;42.820;23.374;2024-01-07T10:40:27;93882.44;;;11.47;75.56
31873;BME280;22407;42.820;23.374;2024-01-07T10:42:54;93876.44;;;11.53;66.51
31873;BME280;22407;42.820;23.374;2024-01-07T10:45:19;93884.38;;;11.46;67.00
31873;BME280;22407;42.820;23.374;2024-01-07T10:47:49;93874.16;;;11.74;68.10
31873;BME280;22407;42.820;23.374;2024-01-07T10:50:18;93865.25;;;11.93;65.07
31873;BME280;22407;42.820;23.374;2024-01-07T10:52:49;93870.31;;;11.94;65.95
31873;BME280;22407;42.820;23.374;2024-01-07T10:55:18;93868.56;;;12.24;65.64
31873;BME280;22407;42.820;23.374;2024-01-07T10:57:46;93870.38;;;12.39;64.36
31873;BME280;22407;42.820;23.374;2024-01-07T11:00:16;93859.72;;;12.08;63.18
31873;BME280;22407;42.820;23.374;2024-01-07T11:03:17;93854.84;;;11.76;62.67
31873;BME280;22407;42.820;23.374;2024-01-07T11:06:05;93860.19;;;11.91;62.74
31873;BME280;22407;42.820;23.374;2024-01-07T11:11:19;93852.81;;;12.10;62.88
31873;BME280;22407;42.820;23.374;2024-01-07T11:13:49;93854.88;;;12.17;63.08
31873;BME280;22407;42.820;23.374;2024-01-07T11:19:04;93856.88;;;12.20;62.28
31873;BME280;22407;42.820;23.374;2024-01-07T11:21:30;93846.25;;;12.11;62.28
31873;BME280;22407;42.820;23.374;2024-01-07T11:23:55;93855.28;;;12.19;63.83
31873;BME280;22407;42.820;23.374;2024-01-07T11:26:22;93856.47;;;11.99;63.49
31873;BME280;22407;42.820;23.374;2024-01-07T11:28:49;93859.25;;;12.02;62.74
31873;BME280;22407;42.820;23.374;2024-01-07T11:31:16;93853.31;;;11.59;62.16
31873;BME280;22407;42.820;23.374;2024-01-07T11:33:47;93861.97;;;11.65;64.43
31873;BME280;22407;42.820;23.374;2024-01-07T11:36:14;93857.00;;;11.51;62.47
31873;BME280;22407;42.820;23.374;2024-01-07T11:38:58;93854.28;;;11.32;63.50
31873;BME280;22407;42.820;23.374;2024-01-07T11:41:26;93858.25;;;11.38;65.59
31873;BME280;22407;42.820;23.374;2024-01-07T11:43:58;93855.91;;;11.52;63.71
31873;BME280;22407;42.820;23.374;2024-01-07T11:46:28;93863.84;;;11.45;64.52
31873;BME280;22407;42.820;23.374;2024-01-07T11:48:57;93862.25;;;11.25;64.31
31873;BME280;22407;42.820;23.374;2024-01-07T11:51:31;93871.84;;;11.23;64.92
31873;BME280;22407;42.820;23.374;2024-01-07T11:53:57;93866.56;;;11.11;65.47
31873;BME280;22407;42.820;23.374;2024-01-07T11:56:27;93862.47;;;11.02;66.36
31873;BME280;22407;42.820;23.374;2024-01-07T11:58:53;93866.81;;;11.06;66.38
31873;BME280;22407;42.820;23.374;2024-01-07T12:01:19;93867.44;;;11.00;65.69
31873;BME280;22407;42.820;23.374;2024-01-07T12:03:45;93864.31;;;10.98;66.62
31873;BME280;22407;42.820;23.374;2024-01-07T12:06:11;93854.25;;;10.98;66.12
31873;BME280;22407;42.820;23.374;2024-01-07T12:08:42;93844.72;;;11.04;67.01
31873;BME280;22407;42.820;23.374;2024-01-07T12:11:12;93849.41;;;11.22;67.46
31873;BME280;22407;42.820;23.374;2024-01-07T12:13:39;93857.72;;;11.14;66.41
31873;BME280;22407;42.820;23.374;2024-01-07T12:16:05;93846.72;;;11.07;65.95
31873;BME280;22407;42.820;23.374;2024-01-07T12:18:31;93833.56;;;11.06;65.14
31873;BME280;22407;42.820;23.374;2024-01-07T12:20:58;93838.28;;;10.93;65.41
31873;BME280;22407;42.820;23.374;2024-01-07T12:23:25;93853.66;;;11.05;66.59
31873;BME280;22407;42.820;23.374;2024-01-07T12:25:54;93848.94;;;11.02;66.81
31873;BME280;22407;42.820;23.374;2024-01-07T12:28:24;93844.81;;;11.08;66.37
31873;BME280;22407;42.820;23.374;2024-01-07T12:30:50;93848.94;;;11.02;65.22
31873;BME280;22407;42.820;23.374;2024-01-07T12:33:17;93846.06;;;10.95;64.09
31873;BME280;22407;42.820;23.374;2024-01-07T12:35:45;93853.50;;;10.98;65.54
31873;BME280;22407;42.820;23.374;2024-01-07T12:38:12;93857.34;;;10.97;66.39
31873;BME280;22407;42.820;23.374;2024-01-07T12:40:37;93856.44;;;10.93;65.75
31873;BME280;22407;42.820;23.374;2024-01-07T12:43:04;93862.56;;;10.90;66.35
31873;BME280;22407;42.820;23.374;2024-01-07T12:45:32;93865.34;;;10.93;67.25
31873;BME280;22407;42.820;23.374;2024-01-07T12:47:58;93859.25;;;10.81;66.55
31873;BME280;22407;42.820;23.374;2024-01-07T12:50:29;93861.81;;;10.74;66.70
31873;BME280;22407;42.820;23.374;2024-01-07T12:52:56;93873.00;;;10.72;66.62